sensor_id;sensor_type;location;lat;lon;timestamp;temperature;humidity
66722;SHT31;53633;49.932;10.884;2022-08-07T00:01:15;16.82;51.80
66722;SHT31;53633;49.932;10.884;2022-08-07T00:04:02;16.45;52.08
66722;SHT31;53633;49.932;10.884;2022-08-07T00:06:29;15.85;53.63
66722;SHT31;53633;49.932;10.884;2022-08-07T00:08:59;15.73;54.31
66722;SHT31;53633;49.932;10.884;2022-08-07T00:11:44;16.22;53.05
66722;SHT31;53633;49.932;10.884;2022-08-07T00:14:22;16.49;52.37
66722;SHT31;53633;49.932;10.884;2022-08-07T00:16:51;16.41;52.95
66722;SHT31;53633;49.932;10.884;2022-08-07T00:19:18;15.55;54.44
66722;SHT31;53633;49.932;10.884;2022-08-07T00:21:51;15.61;54.90
66722;SHT31;53633;49.932;10.884;2022-08-07T00:24:23;15.69;54.58
66722;SHT31;53633;49.932;10.884;2022-08-07T00:26:51;16.13;53.61
66722;SHT31;53633;49.932;10.884;2022-08-07T00:29:33;15.94;53.92
66722;SHT31;53633;49.932;10.884;2022-08-07T00:32:03;15.99;53.61
66722;SHT31;53633;49.932;10.884;2022-08-07T00:34:32;15.65;54.65
66722;SHT31;53633;49.932;10.884;2022-08-07T00:37:01;15.12;55.52
66722;SHT31;53633;49.932;10.884;2022-08-07T00:39:30;15.48;55.20
66722;SHT31;53633;49.932;10.884;2022-08-07T00:41:59;15.79;54.42
66722;SHT31;53633;49.932;10.884;2022-08-07T00:44:31;15.83;54.23
66722;SHT31;53633;49.932;10.884;2022-08-07T00:46:58;15.55;54.46
66722;SHT31;53633;49.932;10.884;2022-08-07T00:49:25;15.49;54.74
66722;SHT31;53633;49.932;10.884;2022-08-07T00:52:12;15.99;53.85
66722;SHT31;53633;49.932;10.884;2022-08-07T00:54:43;15.92;53.68
66722;SHT31;53633;49.932;10.884;2022-08-07T00:57:11;16.06;53.39
66722;SHT31;53633;49.932;10.884;2022-08-07T00:59:38;16.06;53.61
66722;SHT31;53633;49.932;10.884;2022-08-07T01:02:06;15.21;55.64
66722;SHT31;53633;49.932;10.884;2022-08-07T01:04:53;15.58;55.13
66722;SHT31;53633;49.932;10.884;2022-08-07T01:07:24;15.70;54.41
66722;SHT31;53633;49.932;10.884;2022-08-07T01:09:53;15.51;55.25
66722;SHT31;53633;49.932;10.884;2022-08-07T01:12:39;15.58;54.55
66722;SHT31;53633;49.932;10.884;2022-08-07T01:15:20;15.30;55.23
66722;SHT31;53633;49.932;10.884;2022-08-07T01:17:47;15.04;56.41
66722;SHT31;53633;49.932;10.884;2022-08-07T01:20:14;14.89;57.22
66722;SHT31;53633;49.932;10.884;2022-08-07T01:22:44;14.69;57.77
66722;SHT31;53633;49.932;10.884;2022-08-07T01:25:26;14.87;57.68
66722;SHT31;53633;49.932;10.884;2022-08-07T01:28:13;15.46;56.05
66722;SHT31;53633;49.932;10.884;2022-08-07T01:30:40;15.18;56.28
66722;SHT31;53633;49.932;10.884;2022-08-07T01:33:07;15.24;56.47
66722;SHT31;53633;49.932;10.884;2022-08-07T01:35:34;15.41;56.15
66722;SHT31;53633;49.932;10.884;2022-08-07T01:38:22;15.17;56.14
66722;SHT31;53633;49.932;10.884;2022-08-07T01:40:57;15.27;56.27
66722;SHT31;53633;49.932;10.884;2022-08-07T01:43:25;15.12;56.16
66722;SHT31;53633;49.932;10.884;2022-08-07T01:46:00;15.11;56.48
66722;SHT31;53633;49.932;10.884;2022-08-07T01:48:28;15.44;55.75
66722;SHT31;53633;49.932;10.884;2022-08-07T01:51:02;15.42;55.29
66722;SHT31;53633;49.932;10.884;2022-08-07T01:53:52;15.28;56.14
66722;SHT31;53633;49.932;10.884;2022-08-07T01:56:44;15.56;54.91
66722;SHT31;53633;49.932;10.884;2022-08-07T01:59:18;15.34;55.53
66722;SHT31;53633;49.932;10.884;2022-08-07T02:01:53;15.58;54.73
66722;SHT31;53633;49.932;10.884;2022-08-07T02:04:32;15.36;55.48
66722;SHT31;53633;49.932;10.884;2022-08-07T02:07:02;15.23;55.86
66722;SHT31;53633;49.932;10.884;2022-08-07T02:09:31;14.94;56.09
66722;SHT31;53633;49.932;10.884;2022-08-07T02:12:18;15.07;55.97
66722;SHT31;53633;49.932;10.884;2022-08-07T02:14:57;14.73;56.90
66722;SHT31;53633;49.932;10.884;2022-08-07T02:17:26;14.42;57.95
66722;SHT31;53633;49.932;10.884;2022-08-07T02:20:02;14.65;57.84
66722;SHT31;53633;49.932;10.884;2022-08-07T02:22:37;14.68;57.94
66722;SHT31;53633;49.932;10.884;2022-08-07T02:25:13;14.13;59.10
66722;SHT31;53633;49.932;10.884;2022-08-07T02:27:44;14.24;59.18
66722;SHT31;53633;49.932;10.884;2022-08-07T02:30:17;14.58;57.84
66722;SHT31;53633;49.932;10.884;2022-08-07T02:32:45;14.22;58.43
66722;SHT31;53633;49.932;10.884;2022-08-07T02:35:33;14.14;59.28
66722;SHT31;53633;49.932;10.884;2022-08-07T02:38:26;14.43;58.73
66722;SHT31;53633;49.932;10.884;2022-08-07T02:40:59;14.46;58.59
66722;SHT31;53633;49.932;10.884;2022-08-07T02:43:29;14.41;58.70
66722;SHT31;53633;49.932;10.884;2022-08-07T02:45:57;14.62;58.53
66722;SHT31;53633;49.932;10.884;2022-08-07T02:48:28;14.56;58.13
66722;SHT31;53633;49.932;10.884;2022-08-07T02:50:55;14.58;57.88
66722;SHT31;53633;49.932;10.884;2022-08-07T02:53:25;14.07;59.17
66722;SHT31;53633;49.932;10.884;2022-08-07T02:55:55;13.98;59.93
66722;SHT31;53633;49.932;10.884;2022-08-07T02:58:33;14.17;59.57
66722;SHT31;53633;49.932;10.884;2022-08-07T03:01:02;14.03;59.62
66722;SHT31;53633;49.932;10.884;2022-08-07T03:03:30;13.66;61.09
66722;SHT31;53633;49.932;10.884;2022-08-07T03:06:17;13.66;60.72
66722;SHT31;53633;49.932;10.884;2022-08-07T03:08:58;13.94;60.72
66722;SHT31;53633;49.932;10.884;2022-08-07T03:11:25;13.70;61.03
66722;SHT31;53633;49.932;10.884;2022-08-07T03:13:55;13.31;61.98
66722;SHT31;53633;49.932;10.884;2022-08-07T03:16:27;13.26;62.77
66722;SHT31;53633;49.932;10.884;2022-08-07T03:18:56;13.63;62.01
66722;SHT31;53633;49.932;10.884;2022-08-07T03:21:23;13.84;61.49
66722;SHT31;53633;49.932;10.884;2022-08-07T03:23:54;13.50;62.10
66722;SHT31;53633;49.932;10.884;2022-08-07T03:26:41;13.26;62.36
66722;SHT31;53633;49.932;10.884;2022-08-07T03:29:26;13.11;62.94
66722;SHT31;53633;49.932;10.884;2022-08-07T03:31:54;12.95;62.92
66722;SHT31;53633;49.932;10.884;2022-08-07T03:34:22;13.16;63.18
66722;SHT31;53633;49.932;10.884;2022-08-07T03:36:53;13.43;62.31
66722;SHT31;53633;49.932;10.884;2022-08-07T03:39:24;13.46;62.05
66722;SHT31;53633;49.932;10.884;2022-08-07T03:42:11;13.40;61.96
66722;SHT31;53633;49.932;10.884;2022-08-07T03:44:41;13.31;62.83
66722;SHT31;53633;49.932;10.884;2022-08-07T03:47:13;13.14;62.90
66722;SHT31;53633;49.932;10.884;2022-08-07T03:49:41;13.16;63.04
66722;SHT31;53633;49.932;10.884;2022-08-07T03:52:19;13.35;62.23
66722;SHT31;53633;49.932;10.884;2022-08-07T03:54:52;13.32;62.94
66722;SHT31;53633;49.932;10.884;2022-08-07T03:57:33;13.29;62.35
66722;SHT31;53633;49.932;10.884;2022-08-07T04:00:22;12.85;63.22
66722;SHT31;53633;49.932;10.884;2022-08-07T04:02:59;13.02;63.52
66722;SHT31;53633;49.932;10.884;2022-08-07T04:05:30;13.11;63.49
66722;SHT31;53633;49.932;10.884;2022-08-07T04:08:09;13.18;63.04
66722;SHT31;53633;49.932;10.884;2022-08-07T04:10:37;12.72;63.38
66722;SHT31;53633;49.932;10.884;2022-08-07T04:13:10;12.95;63.60
66722;SHT31;53633;49.932;10.884;2022-08-07T04:15:43;12.95;62.98
66722;SHT31;53633;49.932;10.884;2022-08-07T04:18:12;13.05;63.21
66722;SHT31;53633;49.932;10.884;2022-08-07T04:20:59;13.00;63.86
66722;SHT31;53633;49.932;10.884;2022-08-07T04:23:26;12.79;64.14
66722;SHT31;53633;49.932;10.884;2022-08-07T04:26:15;12.74;64.46
66722;SHT31;53633;49.932;10.884;2022-08-07T04:28:47;12.94;64.78
66722;SHT31;53633;49.932;10.884;2022-08-07T04:31:15;13.14;63.39
66722;SHT31;53633;49.932;10.884;2022-08-07T04:34:02;13.18;63.16
66722;SHT31;53633;49.932;10.884;2022-08-07T04:36:42;13.86;61.15
66722;SHT31;53633;49.932;10.884;2022-08-07T04:39:10;14.31;60.23
66722;SHT31;53633;49.932;10.884;2022-08-07T04:41:37;14.29;59.72
66722;SHT31;53633;49.932;10.884;2022-08-07T04:44:07;14.25;60.30
66722;SHT31;53633;49.932;10.884;2022-08-07T04:46:53;14.13;59.62
66722;SHT31;53633;49.932;10.884;2022-08-07T04:49:41;14.11;60.30
66722;SHT31;53633;49.932;10.884;2022-08-07T04:52:33;14.00;60.47
66722;SHT31;53633;49.932;10.884;2022-08-07T04:55:07;14.01;60.66
66722;SHT31;53633;49.932;10.884;2022-08-07T04:58:01;14.42;60.11
66722;SHT31;53633;49.932;10.884;2022-08-07T05:00:53;15.08;58.07
66722;SHT31;53633;49.932;10.884;2022-08-07T05:03:24;14.84;58.40
66722;SHT31;53633;49.932;10.884;2022-08-07T05:06:17;14.93;58.65
66722;SHT31;53633;49.932;10.884;2022-08-07T05:08:48;15.31;57.31
66722;SHT31;53633;49.932;10.884;2022-08-07T05:11:31;15.55;57.15
66722;SHT31;53633;49.932;10.884;2022-08-07T05:14:22;15.79;56.28
66722;SHT31;53633;49.932;10.884;2022-08-07T05:17:13;16.37;55.10
66722;SHT31;53633;49.932;10.884;2022-08-07T05:20:03;18.05;49.92
66722;SHT31;53633;49.932;10.884;2022-08-07T05:22:37;20.25;45.24
66722;SHT31;53633;49.932;10.884;2022-08-07T05:25:06;21.41;42.10
66722;SHT31;53633;49.932;10.884;2022-08-07T05:27:37;21.98;40.93
66722;SHT31;53633;49.932;10.884;2022-08-07T05:30:26;22.83;39.44
66722;SHT31;53633;49.932;10.884;2022-08-07T05:33:00;22.89;38.64
66722;SHT31;53633;49.932;10.884;2022-08-07T05:35:30;23.28;37.83
66722;SHT31;53633;49.932;10.884;2022-08-07T05:38:07;23.57;37.40
66722;SHT31;53633;49.932;10.884;2022-08-07T05:40:36;24.41;36.46
66722;SHT31;53633;49.932;10.884;2022-08-07T05:43:17;23.61;37.48
66722;SHT31;53633;49.932;10.884;2022-08-07T05:46:05;23.96;36.98
66722;SHT31;53633;49.932;10.884;2022-08-07T05:48:32;24.20;36.65
66722;SHT31;53633;49.932;10.884;2022-08-07T05:51:00;24.76;35.86
66722;SHT31;53633;49.932;10.884;2022-08-07T05:53:29;24.95;35.46
66722;SHT31;53633;49.932;10.884;2022-08-07T05:56:18;25.13;35.12
66722;SHT31;53633;49.932;10.884;2022-08-07T05:58:56;25.06;35.26
66722;SHT31;53633;49.932;10.884;2022-08-07T06:01:25;25.20;34.87
66722;SHT31;53633;49.932;10.884;2022-08-07T06:04:02;25.60;34.70
66722;SHT31;53633;49.932;10.884;2022-08-07T06:06:33;25.75;34.41
66722;SHT31;53633;49.932;10.884;2022-08-07T06:09:01;26.35;33.76
66722;SHT31;53633;49.932;10.884;2022-08-07T06:11:31;26.56;33.65
66722;SHT31;53633;49.932;10.884;2022-08-07T06:13:59;26.49;33.65
66722;SHT31;53633;49.932;10.884;2022-08-07T06:16:46;26.77;33.16
66722;SHT31;53633;49.932;10.884;2022-08-07T06:19:16;27.09;32.79
66722;SHT31;53633;49.932;10.884;2022-08-07T06:22:05;27.50;31.85
66722;SHT31;53633;49.932;10.884;2022-08-07T06:24:49;27.52;32.24
66722;SHT31;53633;49.932;10.884;2022-08-07T06:27:24;28.25;30.89
66722;SHT31;53633;49.932;10.884;2022-08-07T06:30:11;28.56;30.60
66722;SHT31;53633;49.932;10.884;2022-08-07T06:32:59;28.35;30.97
66722;SHT31;53633;49.932;10.884;2022-08-07T06:35:26;28.05;31.41
66722;SHT31;53633;49.932;10.884;2022-08-07T06:38:18;27.69;32.07
66722;SHT31;53633;49.932;10.884;2022-08-07T06:40:58;28.21;31.89
66722;SHT31;53633;49.932;10.884;2022-08-07T06:43:28;28.36;31.02
66722;SHT31;53633;49.932;10.884;2022-08-07T06:46:06;28.25;31.15
66722;SHT31;53633;49.932;10.884;2022-08-07T06:48:37;28.91;30.44
66722;SHT31;53633;49.932;10.884;2022-08-07T06:51:09;28.76;30.72
66722;SHT31;53633;49.932;10.884;2022-08-07T06:53:43;28.45;30.83
66722;SHT31;53633;49.932;10.884;2022-08-07T06:56:30;28.36;31.15
66722;SHT31;53633;49.932;10.884;2022-08-07T06:58:59;28.41;31.31
66722;SHT31;53633;49.932;10.884;2022-08-07T07:01:47;28.32;31.88
66722;SHT31;53633;49.932;10.884;2022-08-07T07:04:16;28.18;31.57
66722;SHT31;53633;49.932;10.884;2022-08-07T07:06:59;28.22;31.26
66722;SHT31;53633;49.932;10.884;2022-08-07T07:09:29;27.60;31.23
66722;SHT31;53633;49.932;10.884;2022-08-07T07:12:02;27.45;31.23
66722;SHT31;53633;49.932;10.884;2022-08-07T07:14:48;27.54;30.05
66722;SHT31;53633;49.932;10.884;2022-08-07T07:17:21;27.01;31.15
66722;SHT31;53633;49.932;10.884;2022-08-07T07:20:09;27.25;31.18
66722;SHT31;53633;49.932;10.884;2022-08-07T07:22:38;27.57;30.67
66722;SHT31;53633;49.932;10.884;2022-08-07T07:25:27;27.73;31.77
66722;SHT31;53633;49.932;10.884;2022-08-07T07:28:19;28.04;29.53
66722;SHT31;53633;49.932;10.884;2022-08-07T07:31:11;28.60;30.00
66722;SHT31;53633;49.932;10.884;2022-08-07T07:33:43;29.67;28.72
66722;SHT31;53633;49.932;10.884;2022-08-07T07:36:23;29.77;28.41
66722;SHT31;53633;49.932;10.884;2022-08-07T07:38:59;29.58;28.55
66722;SHT31;53633;49.932;10.884;2022-08-07T07:41:31;30.44;28.18
66722;SHT31;53633;49.932;10.884;2022-08-07T07:44:19;31.10;26.29
66722;SHT31;53633;49.932;10.884;2022-08-07T07:46:55;32.08;26.22
66722;SHT31;53633;49.932;10.884;2022-08-07T07:49:46;31.43;26.41
66722;SHT31;53633;49.932;10.884;2022-08-07T07:52:35;31.31;26.48
66722;SHT31;53633;49.932;10.884;2022-08-07T07:55:07;31.62;25.99
66722;SHT31;53633;49.932;10.884;2022-08-07T07:57:38;31.30;26.59
66722;SHT31;53633;49.932;10.884;2022-08-07T08:00:19;31.23;26.90
66722;SHT31;53633;49.932;10.884;2022-08-07T08:03:03;30.25;27.66
66722;SHT31;53633;49.932;10.884;2022-08-07T08:05:50;29.77;27.72
66722;SHT31;53633;49.932;10.884;2022-08-07T08:08:22;30.24;27.95
66722;SHT31;53633;49.932;10.884;2022-08-07T08:11:03;29.21;28.33
66722;SHT31;53633;49.932;10.884;2022-08-07T08:13:36;28.83;29.34
66722;SHT31;53633;49.932;10.884;2022-08-07T08:16:23;28.25;30.08
66722;SHT31;53633;49.932;10.884;2022-08-07T08:18:56;28.24;30.21
66722;SHT31;53633;49.932;10.884;2022-08-07T08:21:26;27.38;30.13
66722;SHT31;53633;49.932;10.884;2022-08-07T08:24:14;27.04;30.47
66722;SHT31;53633;49.932;10.884;2022-08-07T08:27:04;27.06;30.97
66722;SHT31;53633;49.932;10.884;2022-08-07T08:29:39;27.57;30.18
66722;SHT31;53633;49.932;10.884;2022-08-07T08:32:23;27.90;29.10
66722;SHT31;53633;49.932;10.884;2022-08-07T08:35:06;28.46;28.51
66722;SHT31;53633;49.932;10.884;2022-08-07T08:37:36;28.90;28.29
66722;SHT31;53633;49.932;10.884;2022-08-07T08:40:28;29.41;28.03
66722;SHT31;53633;49.932;10.884;2022-08-07T08:43:00;28.86;28.65
66722;SHT31;53633;49.932;10.884;2022-08-07T08:45:35;28.15;29.47
66722;SHT31;53633;49.932;10.884;2022-08-07T08:48:29;28.55;27.95
66722;SHT31;53633;49.932;10.884;2022-08-07T08:51:07;27.97;28.55
66722;SHT31;53633;49.932;10.884;2022-08-07T08:53:55;28.93;27.85
66722;SHT31;53633;49.932;10.884;2022-08-07T08:56:29;28.79;27.86
66722;SHT31;53633;49.932;10.884;2022-08-07T08:59:03;28.48;28.12
66722;SHT31;53633;49.932;10.884;2022-08-07T09:01:44;29.18;26.85
66722;SHT31;53633;49.932;10.884;2022-08-07T09:04:25;28.87;28.08
66722;SHT31;53633;49.932;10.884;2022-08-07T09:07:00;28.72;27.80
66722;SHT31;53633;49.932;10.884;2022-08-07T09:09:46;29.69;27.79
66722;SHT31;53633;49.932;10.884;2022-08-07T09:12:32;29.61;27.46
66722;SHT31;53633;49.932;10.884;2022-08-07T09:15:16;28.74;27.99
66722;SHT31;53633;49.932;10.884;2022-08-07T09:18:20;29.21;28.19
66722;SHT31;53633;49.932;10.884;2022-08-07T09:21:05;28.31;28.95
66722;SHT31;53633;49.932;10.884;2022-08-07T09:24:02;27.77;28.94
66722;SHT31;53633;49.932;10.884;2022-08-07T09:26:55;29.35;28.41
66722;SHT31;53633;49.932;10.884;2022-08-07T09:29:44;29.52;28.07
66722;SHT31;53633;49.932;10.884;2022-08-07T09:32:46;29.94;26.51
66722;SHT31;53633;49.932;10.884;2022-08-07T09:35:27;29.80;26.69
66722;SHT31;53633;49.932;10.884;2022-08-07T09:38:24;29.79;26.71
66722;SHT31;53633;49.932;10.884;2022-08-07T09:41:05;30.04;27.30
66722;SHT31;53633;49.932;10.884;2022-08-07T09:43:47;30.49;26.97
66722;SHT31;53633;49.932;10.884;2022-08-07T09:46:43;29.79;27.25
66722;SHT31;53633;49.932;10.884;2022-08-07T09:49:41;29.27;27.44
66722;SHT31;53633;49.932;10.884;2022-08-07T09:52:36;30.18;27.28
66722;SHT31;53633;49.932;10.884;2022-08-07T09:55:09;30.64;27.75
66722;SHT31;53633;49.932;10.884;2022-08-07T09:58:13;30.61;26.08
66722;SHT31;53633;49.932;10.884;2022-08-07T10:01:07;29.63;26.22
66722;SHT31;53633;49.932;10.884;2022-08-07T10:07:24;29.54;26.72
66722;SHT31;53633;49.932;10.884;2022-08-07T10:10:26;29.79;25.88
66722;SHT31;53633;49.932;10.884;2022-08-07T10:13:17;29.69;27.19
66722;SHT31;53633;49.932;10.884;2022-08-07T10:16:20;29.72;27.07
66722;SHT31;53633;49.932;10.884;2022-08-07T10:22:05;29.20;26.41
66722;SHT31;53633;49.932;10.884;2022-08-07T10:24:49;28.82;26.79
66722;SHT31;53633;49.932;10.884;2022-08-07T10:27:40;28.86;27.44
66722;SHT31;53633;49.932;10.884;2022-08-07T10:30:15;28.51;28.01
66722;SHT31;53633;49.932;10.884;2022-08-07T10:33:08;27.90;28.74
66722;SHT31;53633;49.932;10.884;2022-08-07T10:35:54;26.73;28.98
66722;SHT31;53633;49.932;10.884;2022-08-07T10:38:46;26.56;30.71
66722;SHT31;53633;49.932;10.884;2022-08-07T10:41:26;26.83;30.32
66722;SHT31;53633;49.932;10.884;2022-08-07T10:44:18;26.39;29.58
66722;SHT31;53633;49.932;10.884;2022-08-07T10:47:14;26.23;29.96
66722;SHT31;53633;49.932;10.884;2022-08-07T10:49:48;26.12;30.58
66722;SHT31;53633;49.932;10.884;2022-08-07T10:52:22;25.75;29.82
66722;SHT31;53633;49.932;10.884;2022-08-07T10:55:09;25.88;30.32
66722;SHT31;53633;49.932;10.884;2022-08-07T10:58:04;25.85;29.55
66722;SHT31;53633;49.932;10.884;2022-08-07T11:00:45;25.58;30.13
66722;SHT31;53633;49.932;10.884;2022-08-07T11:03:21;25.57;30.21
66722;SHT31;53633;49.932;10.884;2022-08-07T11:05:58;25.33;29.89
66722;SHT31;53633;49.932;10.884;2022-08-07T11:08:36;25.55;30.09
66722;SHT31;53633;49.932;10.884;2022-08-07T11:11:09;25.82;30.72
66722;SHT31;53633;49.932;10.884;2022-08-07T11:13:40;25.77;30.52
66722;SHT31;53633;49.932;10.884;2022-08-07T11:16:33;25.80;29.94
66722;SHT31;53633;49.932;10.884;2022-08-07T11:19:05;25.67;29.65
66722;SHT31;53633;49.932;10.884;2022-08-07T11:21:41;25.74;31.52
66722;SHT31;53633;49.932;10.884;2022-08-07T11:24:16;25.95;30.58
66722;SHT31;53633;49.932;10.884;2022-08-07T11:26:48;25.96;31.14
66722;SHT31;53633;49.932;10.884;2022-08-07T11:29:24;25.68;30.49
66722;SHT31;53633;49.932;10.884;2022-08-07T11:32:15;25.77;31.18
66722;SHT31;53633;49.932;10.884;2022-08-07T11:34:55;25.50;31.20
66722;SHT31;53633;49.932;10.884;2022-08-07T11:37:36;25.40;30.61
66722;SHT31;53633;49.932;10.884;2022-08-07T11:40:38;25.67;31.17
66722;SHT31;53633;49.932;10.884;2022-08-07T11:43:18;25.74;31.07
66722;SHT31;53633;49.932;10.884;2022-08-07T11:46:15;25.95;31.21
66722;SHT31;53633;49.932;10.884;2022-08-07T11:49:05;25.81;30.97
66722;SHT31;53633;49.932;10.884;2022-08-07T11:52:18;25.77;30.55
66722;SHT31;53633;49.932;10.884;2022-08-07T11:55:08;25.64;30.68
66722;SHT31;53633;49.932;10.884;2022-08-07T11:57:52;25.58;31.00
66722;SHT31;53633;49.932;10.884;2022-08-07T12:00:31;25.50;31.56
66722;SHT31;53633;49.932;10.884;2022-08-07T12:06:27;25.43;31.21
66722;SHT31;53633;49.932;10.884;2022-08-07T12:09:14;25.58;31.81
66722;SHT31;53633;49.932;10.884;2022-08-07T12:11:57;25.71;30.92
66722;SHT31;53633;49.932;10.884;2022-08-07T12:14:43;25.43;31.05
66722;SHT31;53633;49.932;10.884;2022-08-07T12:17:31;25.68;30.80
66722;SHT31;53633;49.932;10.884;2022-08-07T12:20:04;25.77;31.20
66722;SHT31;53633;49.932;10.884;2022-08-07T12:25:45;25.31;30.38
66722;SHT31;53633;49.932;10.884;2022-08-07T12:28:40;25.53;29.97
66722;SHT31;53633;49.932;10.884;2022-08-07T12:31:20;25.74;31.36
66722;SHT31;53633;49.932;10.884;2022-08-07T12:33:50;25.55;31.22
66722;SHT31;53633;49.932;10.884;2022-08-07T12:36:28;25.44;30.45
66722;SHT31;53633;49.932;10.884;2022-08-07T12:39:02;25.60;30.20
66722;SHT31;53633;49.932;10.884;2022-08-07T12:41:50;25.58;29.97
66722;SHT31;53633;49.932;10.884;2022-08-07T12:44:18;25.61;30.47
66722;SHT31;53633;49.932;10.884;2022-08-07T12:46:56;25.65;28.99
66722;SHT31;53633;49.932;10.884;2022-08-07T12:49:34;25.63;28.45
66722;SHT31;53633;49.932;10.884;2022-08-07T12:52:26;25.93;28.92
66722;SHT31;53633;49.932;10.884;2022-08-07T12:55:06;25.96;29.25
66722;SHT31;53633;49.932;10.884;2022-08-07T13:00:49;25.91;28.98
66722;SHT31;53633;49.932;10.884;2022-08-07T13:03:35;26.09;29.50
66722;SHT31;53633;49.932;10.884;2022-08-07T13:06:33;25.86;27.94
66722;SHT31;53633;49.932;10.884;2022-08-07T13:09:27;25.98;28.88
66722;SHT31;53633;49.932;10.884;2022-08-07T13:12:27;25.95;29.03
66722;SHT31;53633;49.932;10.884;2022-08-07T13:15:02;26.02;28.66
66722;SHT31;53633;49.932;10.884;2022-08-07T13:17:44;25.84;28.14
66722;SHT31;53633;49.932;10.884;2022-08-07T13:20:22;25.81;28.46
66722;SHT31;53633;49.932;10.884;2022-08-07T13:22:59;25.77;28.84
66722;SHT31;53633;49.932;10.884;2022-08-07T13:25:53;25.75;29.06
66722;SHT31;53633;49.932;10.884;2022-08-07T13:28:34;25.71;28.94
66722;SHT31;53633;49.932;10.884;2022-08-07T13:31:09;25.95;29.16
66722;SHT31;53633;49.932;10.884;2022-08-07T13:33:47;25.99;28.69
66722;SHT31;53633;49.932;10.884;2022-08-07T13:36:40;25.96;28.50
66722;SHT31;53633;49.932;10.884;2022-08-07T13:39:16;26.03;28.48
66722;SHT31;53633;49.932;10.884;2022-08-07T13:42:13;26.05;28.60
66722;SHT31;53633;49.932;10.884;2022-08-07T13:44:49;26.09;29.04
66722;SHT31;53633;49.932;10.884;2022-08-07T13:47:38;25.91;28.38
66722;SHT31;53633;49.932;10.884;2022-08-07T13:50:26;25.85;29.01
66722;SHT31;53633;49.932;10.884;2022-08-07T13:53:01;25.67;28.20
66722;SHT31;53633;49.932;10.884;2022-08-07T13:55:29;25.85;29.17
66722;SHT31;53633;49.932;10.884;2022-08-07T13:58:05;25.78;29.12
66722;SHT31;53633;49.932;10.884;2022-08-07T14:00:38;25.64;28.06
66722;SHT31;53633;49.932;10.884;2022-08-07T14:03:21;25.82;29.00
66722;SHT31;53633;49.932;10.884;2022-08-07T14:06:09;25.96;29.07
66722;SHT31;53633;49.932;10.884;2022-08-07T14:08:41;25.77;26.89
66722;SHT31;53633;49.932;10.884;2022-08-07T14:11:11;25.78;27.18
66722;SHT31;53633;49.932;10.884;2022-08-07T14:13:48;25.75;27.34
66722;SHT31;53633;49.932;10.884;2022-08-07T14:16:17;25.84;27.45
66722;SHT31;53633;49.932;10.884;2022-08-07T14:18:54;25.96;28.36
66722;SHT31;53633;49.932;10.884;2022-08-07T14:21:26;25.92;27.14
66722;SHT31;53633;49.932;10.884;2022-08-07T14:24:19;25.91;27.23
66722;SHT31;53633;49.932;10.884;2022-08-07T14:26:50;25.82;28.30
66722;SHT31;53633;49.932;10.884;2022-08-07T14:29:19;25.89;27.92
66722;SHT31;53633;49.932;10.884;2022-08-07T14:32:10;25.89;27.38
66722;SHT31;53633;49.932;10.884;2022-08-07T14:34:41;25.96;28.40
66722;SHT31;53633;49.932;10.884;2022-08-07T14:37:13;26.06;28.73
66722;SHT31;53633;49.932;10.884;2022-08-07T14:39:43;26.02;28.25
66722;SHT31;53633;49.932;10.884;2022-08-07T14:42:31;26.02;28.30
66722;SHT31;53633;49.932;10.884;2022-08-07T14:45:02;26.08;28.81
66722;SHT31;53633;49.932;10.884;2022-08-07T14:47:50;26.05;27.91
66722;SHT31;53633;49.932;10.884;2022-08-07T14:50:25;25.98;28.72
66722;SHT31;53633;49.932;10.884;2022-08-07T14:52:53;25.95;27.49
66722;SHT31;53633;49.932;10.884;2022-08-07T14:55:25;26.05;27.56
66722;SHT31;53633;49.932;10.884;2022-08-07T14:57:57;26.16;27.43
66722;SHT31;53633;49.932;10.884;2022-08-07T15:00:47;26.13;27.40
66722;SHT31;53633;49.932;10.884;2022-08-07T15:03:34;26.12;26.87
66722;SHT31;53633;49.932;10.884;2022-08-07T15:06:31;26.03;27.08
66722;SHT31;53633;49.932;10.884;2022-08-07T15:09:02;26.13;27.07
66722;SHT31;53633;49.932;10.884;2022-08-07T15:12:03;26.01;26.29
66722;SHT31;53633;49.932;10.884;2022-08-07T15:14:45;25.96;27.16
66722;SHT31;53633;49.932;10.884;2022-08-07T15:17:38;26.05;28.08
66722;SHT31;53633;49.932;10.884;2022-08-07T15:20:24;25.82;27.31
66722;SHT31;53633;49.932;10.884;2022-08-07T15:23:17;25.91;28.29
66722;SHT31;53633;49.932;10.884;2022-08-07T15:26:13;25.91;28.23
66722;SHT31;53633;49.932;10.884;2022-08-07T15:28:47;25.85;27.48
66722;SHT31;53633;49.932;10.884;2022-08-07T15:31:26;25.82;27.08
66722;SHT31;53633;49.932;10.884;2022-08-07T15:34:13;25.89;28.53
66722;SHT31;53633;49.932;10.884;2022-08-07T15:36:45;25.81;28.54
66722;SHT31;53633;49.932;10.884;2022-08-07T15:42:48;25.86;28.26
66722;SHT31;53633;49.932;10.884;2022-08-07T15:45:27;25.84;28.38
66722;SHT31;53633;49.932;10.884;2022-08-07T15:48:21;25.85;27.75
66722;SHT31;53633;49.932;10.884;2022-08-07T15:53:47;25.88;26.80
66722;SHT31;53633;49.932;10.884;2022-08-07T15:56:21;25.95;27.62
66722;SHT31;53633;49.932;10.884;2022-08-07T15:58:51;26.03;27.22
66722;SHT31;53633;49.932;10.884;2022-08-07T16:01:21;26.11;27.66
66722;SHT31;53633;49.932;10.884;2022-08-07T16:04:06;26.18;27.86
66722;SHT31;53633;49.932;10.884;2022-08-07T16:06:47;26.16;28.45
66722;SHT31;53633;49.932;10.884;2022-08-07T16:09:20;26.16;27.95
66722;SHT31;53633;49.932;10.884;2022-08-07T16:11:59;26.18;27.85
66722;SHT31;53633;49.932;10.884;2022-08-07T16:15:00;26.06;28.17
66722;SHT31;53633;49.932;10.884;2022-08-07T16:17:47;26.02;27.80
66722;SHT31;53633;49.932;10.884;2022-08-07T16:20:39;25.99;28.40
66722;SHT31;53633;49.932;10.884;2022-08-07T16:23:16;25.99;28.13
66722;SHT31;53633;49.932;10.884;2022-08-07T16:26:09;26.06;27.96
66722;SHT31;53633;49.932;10.884;2022-08-07T16:28:55;26.02;27.37
66722;SHT31;53633;49.932;10.884;2022-08-07T16:31:54;25.96;27.18
66722;SHT31;53633;49.932;10.884;2022-08-07T16:34:35;25.96;27.42
66722;SHT31;53633;49.932;10.884;2022-08-07T16:37:29;26.02;26.81
66722;SHT31;53633;49.932;10.884;2022-08-07T16:43:42;25.99;28.14
66722;SHT31;53633;49.932;10.884;2022-08-07T16:50:24;25.92;27.92
66722;SHT31;53633;49.932;10.884;2022-08-07T16:53:46;25.88;27.63
66722;SHT31;53633;49.932;10.884;2022-08-07T16:56:48;25.88;27.62
66722;SHT31;53633;49.932;10.884;2022-08-07T16:59:27;25.86;27.87
66722;SHT31;53633;49.932;10.884;2022-08-07T17:02:34;25.84;27.48